sensor_id;sensor_type;location;lat;lon;timestamp;temperature;humidity
46283;DHT22;32017;43.700;11.820;2022-12-01T00:02:05;1.20;99.90
46283;DHT22;32017;43.700;11.820;2022-12-01T00:04:25;1.10;99.90
46283;DHT22;32017;43.700;11.820;2022-12-01T00:06:45;1.10;99.90
46283;DHT22;32017;43.700;11.820;2022-12-01T00:09:04;1.00;99.90
46283;DHT22;32017;43.700;11.820;2022-12-01T00:11:43;1.00;99.90
46283;DHT22;32017;43.700;11.820;2022-12-01T00:14:03;0.90;99.90
46283;DHT22;32017;43.700;11.820;2022-12-01T00:16:23;1.00;99.90
46283;DHT22;32017;43.700;11.820;2022-12-01T00:18:44;1.10;99.90
46283;DHT22;32017;43.700;11.820;2022-12-01T00:21:05;1.10;99.90
46283;DHT22;32017;43.700;11.820;2022-12-01T00:23:25;1.30;99.90
46283;DHT22;32017;43.700;11.820;2022-12-01T00:25:45;1.30;99.90
46283;DHT22;32017;43.700;11.820;2022-12-01T00:28:05;1.20;99.90
46283;DHT22;32017;43.700;11.820;2022-12-01T00:30:25;1.20;99.90
46283;DHT22;32017;43.700;11.820;2022-12-01T00:32:45;1.20;99.90
46283;DHT22;32017;43.700;11.820;2022-12-01T00:35:05;1.20;99.90
46283;DHT22;32017;43.700;11.820;2022-12-01T00:37:25;1.20;99.90
46283;DHT22;32017;43.700;11.820;2022-12-01T00:39:45;1.20;99.90
46283;DHT22;32017;43.700;11.820;2022-12-01T00:42:05;1.30;99.90
46283;DHT22;32017;43.700;11.820;2022-12-01T00:44:31;1.20;99.90
46283;DHT22;32017;43.700;11.820;2022-12-01T00:46:51;1.20;99.90
46283;DHT22;32017;43.700;11.820;2022-12-01T00:49:14;1.30;99.90
46283;DHT22;32017;43.700;11.820;2022-12-01T00:51:34;1.40;99.90
46283;DHT22;32017;43.700;11.820;2022-12-01T00:53:54;1.50;99.90
46283;DHT22;32017;43.700;11.820;2022-12-01T00:56:13;1.40;99.90
46283;DHT22;32017;43.700;11.820;2022-12-01T00:58:33;1.50;99.90
46283;DHT22;32017;43.700;11.820;2022-12-01T01:00:57;1.50;99.90
46283;DHT22;32017;43.700;11.820;2022-12-01T01:03:18;1.70;99.90
46283;DHT22;32017;43.700;11.820;2022-12-01T01:05:39;1.70;99.90
46283;DHT22;32017;43.700;11.820;2022-12-01T01:07:59;1.90;99.90
46283;DHT22;32017;43.700;11.820;2022-12-01T01:10:19;2.00;99.90
46283;DHT22;32017;43.700;11.820;2022-12-01T01:12:39;2.10;99.90
46283;DHT22;32017;43.700;11.820;2022-12-01T01:14:58;2.10;99.90
46283;DHT22;32017;43.700;11.820;2022-12-01T01:17:18;2.00;99.90
46283;DHT22;32017;43.700;11.820;2022-12-01T01:19:38;1.90;99.90
46283;DHT22;32017;43.700;11.820;2022-12-01T01:21:58;1.80;99.90
46283;DHT22;32017;43.700;11.820;2022-12-01T01:24:17;1.70;99.90
46283;DHT22;32017;43.700;11.820;2022-12-01T01:26:37;1.50;99.90
46283;DHT22;32017;43.700;11.820;2022-12-01T01:28:59;1.50;99.90
46283;DHT22;32017;43.700;11.820;2022-12-01T01:31:21;1.50;99.90
46283;DHT22;32017;43.700;11.820;2022-12-01T01:33:42;1.40;99.90
46283;DHT22;32017;43.700;11.820;2022-12-01T01:36:02;1.30;99.90
46283;DHT22;32017;43.700;11.820;2022-12-01T01:38:22;1.30;99.90
46283;DHT22;32017;43.700;11.820;2022-12-01T01:40:44;1.30;99.90
46283;DHT22;32017;43.700;11.820;2022-12-01T01:43:13;1.30;99.90
46283;DHT22;32017;43.700;11.820;2022-12-01T01:45:33;1.30;99.90
46283;DHT22;32017;43.700;11.820;2022-12-01T01:47:53;1.40;99.90
46283;DHT22;32017;43.700;11.820;2022-12-01T01:50:15;1.30;99.90
46283;DHT22;32017;43.700;11.820;2022-12-01T01:52:44;1.40;99.90
46283;DHT22;32017;43.700;11.820;2022-12-01T01:55:04;1.40;99.90
46283;DHT22;32017;43.700;11.820;2022-12-01T01:57:30;1.30;99.90
46283;DHT22;32017;43.700;11.820;2022-12-01T02:00:08;1.30;99.90
46283;DHT22;32017;43.700;11.820;2022-12-01T02:02:29;1.20;99.90
46283;DHT22;32017;43.700;11.820;2022-12-01T02:04:54;1.20;99.90
46283;DHT22;32017;43.700;11.820;2022-12-01T02:07:17;1.10;99.90
46283;DHT22;32017;43.700;11.820;2022-12-01T02:09:38;1.10;99.90
46283;DHT22;32017;43.700;11.820;2022-12-01T02:17:46;0.90;99.90
46283;DHT22;32017;43.700;11.820;2022-12-01T02:25:47;0.80;99.90
46283;DHT22;32017;43.700;11.820;2022-12-01T02:30:44;0.80;99.90
46283;DHT22;32017;43.700;11.820;2022-12-01T02:35:59;0.80;99.90
46283;DHT22;32017;43.700;11.820;2022-12-01T02:41:10;0.80;99.90
46283;DHT22;32017;43.700;11.820;2022-12-01T02:43:40;0.70;99.90
46283;DHT22;32017;43.700;11.820;2022-12-01T02:46:45;0.70;99.90
46283;DHT22;32017;43.700;11.820;2022-12-01T02:48:48;0.60;99.90
46283;DHT22;32017;43.700;11.820;2022-12-01T02:51:13;0.70;99.90
46283;DHT22;32017;43.700;11.820;2022-12-01T02:53:34;0.70;99.90
46283;DHT22;32017;43.700;11.820;2022-12-01T02:55:57;0.70;99.90
46283;DHT22;32017;43.700;11.820;2022-12-01T02:58:17;0.70;99.90
46283;DHT22;32017;43.700;11.820;2022-12-01T03:00:38;0.70;99.90
46283;DHT22;32017;43.700;11.820;2022-12-01T03:18:01;0.70;99.90
46283;DHT22;32017;43.700;11.820;2022-12-01T03:20:37;0.70;99.90
46283;DHT22;32017;43.700;11.820;2022-12-01T03:23:07;0.70;99.90
46283;DHT22;32017;43.700;11.820;2022-12-01T03:25:29;0.70;99.90
46283;DHT22;32017;43.700;11.820;2022-12-01T03:27:49;0.70;99.90
46283;DHT22;32017;43.700;11.820;2022-12-01T03:30:36;0.70;99.90
46283;DHT22;32017;43.700;11.820;2022-12-01T03:33:00;0.60;99.90
46283;DHT22;32017;43.700;11.820;2022-12-01T03:35:44;0.60;99.90
46283;DHT22;32017;43.700;11.820;2022-12-01T03:38:18;0.60;99.90
46283;DHT22;32017;43.700;11.820;2022-12-01T03:40:40;0.50;99.90
46283;DHT22;32017;43.700;11.820;2022-12-01T03:43:04;0.50;99.90
46283;DHT22;32017;43.700;11.820;2022-12-01T03:45:42;0.50;99.90
46283;DHT22;32017;43.700;11.820;2022-12-01T03:48:06;0.30;99.90
46283;DHT22;32017;43.700;11.820;2022-12-01T03:50:52;0.20;99.90
46283;DHT22;32017;43.700;11.820;2022-12-01T03:53:18;0.10;99.90
46283;DHT22;32017;43.700;11.820;2022-12-01T03:55:43;0.10;99.90
46283;DHT22;32017;43.700;11.820;2022-12-01T03:58:05;0.00;99.90
46283;DHT22;32017;43.700;11.820;2022-12-01T04:00:27;0.00;99.90
46283;DHT22;32017;43.700;11.820;2022-12-01T04:02:46;-0.10;99.90
46283;DHT22;32017;43.700;11.820;2022-12-01T04:05:07;0.00;99.90
46283;DHT22;32017;43.700;11.820;2022-12-01T04:07:30;0.00;99.90
46283;DHT22;32017;43.700;11.820;2022-12-01T04:09:50;0.00;99.90
46283;DHT22;32017;43.700;11.820;2022-12-01T04:12:12;-0.10;99.90
46283;DHT22;32017;43.700;11.820;2022-12-01T04:14:53;-0.10;99.90
46283;DHT22;32017;43.700;11.820;2022-12-01T04:17:13;-0.10;99.90
46283;DHT22;32017;43.700;11.820;2022-12-01T04:19:33;-0.20;99.90
46283;DHT22;32017;43.700;11.820;2022-12-01T04:21:53;-0.20;99.90
46283;DHT22;32017;43.700;11.820;2022-12-01T04:24:14;-0.10;99.90
46283;DHT22;32017;43.700;11.820;2022-12-01T04:26:35;-0.10;99.90
46283;DHT22;32017;43.700;11.820;2022-12-01T04:28:55;-0.20;99.90
46283;DHT22;32017;43.700;11.820;2022-12-01T04:31:15;-0.20;99.90
46283;DHT22;32017;43.700;11.820;2022-12-01T04:33:35;-0.30;99.90
46283;DHT22;32017;43.700;11.820;2022-12-01T04:35:58;-0.40;99.90
46283;DHT22;32017;43.700;11.820;2022-12-01T04:38:19;-0.40;99.90
46283;DHT22;32017;43.700;11.820;2022-12-01T04:40:38;-0.40;99.90
46283;DHT22;32017;43.700;11.820;2022-12-01T04:42:58;-0.50;99.90
46283;DHT22;32017;43.700;11.820;2022-12-01T04:45:18;-0.50;99.90
46283;DHT22;32017;43.700;11.820;2022-12-01T04:47:37;-0.40;99.90
46283;DHT22;32017;43.700;11.820;2022-12-01T04:49:57;-0.40;99.90
46283;DHT22;32017;43.700;11.820;2022-12-01T04:52:17;-0.30;99.90
46283;DHT22;32017;43.700;11.820;2022-12-01T04:54:36;-0.40;99.90
46283;DHT22;32017;43.700;11.820;2022-12-01T04:56:56;-0.40;99.90
46283;DHT22;32017;43.700;11.820;2022-12-01T04:59:16;-0.30;99.90
46283;DHT22;32017;43.700;11.820;2022-12-01T05:01:36;-0.40;99.90
46283;DHT22;32017;43.700;11.820;2022-12-01T05:03:56;-0.20;99.90
46283;DHT22;32017;43.700;11.820;2022-12-01T05:06:18;-0.30;99.90
46283;DHT22;32017;43.700;11.820;2022-12-01T05:08:38;-0.20;99.90
46283;DHT22;32017;43.700;11.820;2022-12-01T05:10:58;-0.30;99.90
46283;DHT22;32017;43.700;11.820;2022-12-01T05:13:18;-0.30;99.90
46283;DHT22;32017;43.700;11.820;2022-12-01T05:15:38;-0.20;99.90
46283;DHT22;32017;43.700;11.820;2022-12-01T05:17:57;-0.20;99.90
46283;DHT22;32017;43.700;11.820;2022-12-01T05:20:20;-0.30;99.90
46283;DHT22;32017;43.700;11.820;2022-12-01T05:23:00;-0.30;99.90
46283;DHT22;32017;43.700;11.820;2022-12-01T05:25:33;-0.30;99.90
46283;DHT22;32017;43.700;11.820;2022-12-01T05:27:53;-0.30;99.90
46283;DHT22;32017;43.700;11.820;2022-12-01T05:30:13;-0.30;99.90
46283;DHT22;32017;43.700;11.820;2022-12-01T05:32:32;-0.30;99.90
46283;DHT22;32017;43.700;11.820;2022-12-01T05:34:52;-0.30;99.90
46283;DHT22;32017;43.700;11.820;2022-12-01T05:37:12;-0.30;99.90
46283;DHT22;32017;43.700;11.820;2022-12-01T05:39:32;-0.30;99.90
46283;DHT22;32017;43.700;11.820;2022-12-01T05:41:51;-0.30;99.90
46283;DHT22;32017;43.700;11.820;2022-12-01T05:44:12;-0.20;99.90
46283;DHT22;32017;43.700;11.820;2022-12-01T05:46:32;-0.20;99.90
46283;DHT22;32017;43.700;11.820;2022-12-01T05:48:51;-0.30;99.90
46283;DHT22;32017;43.700;11.820;2022-12-01T05:51:13;-0.30;99.90
46283;DHT22;32017;43.700;11.820;2022-12-01T05:53:34;-0.30;99.90
46283;DHT22;32017;43.700;11.820;2022-12-01T05:55:54;-0.20;99.90
46283;DHT22;32017;43.700;11.820;2022-12-01T05:58:14;-0.20;99.90
46283;DHT22;32017;43.700;11.820;2022-12-01T06:00:34;-0.30;99.90
46283;DHT22;32017;43.700;11.820;2022-12-01T06:02:54;-0.20;99.90
46283;DHT22;32017;43.700;11.820;2022-12-01T06:05:13;-0.20;99.90
46283;DHT22;32017;43.700;11.820;2022-12-01T06:07:33;-0.20;99.90
46283;DHT22;32017;43.700;11.820;2022-12-01T06:09:54;-0.20;99.90
46283;DHT22;32017;43.700;11.820;2022-12-01T06:12:14;-0.20;99.90
46283;DHT22;32017;43.700;11.820;2022-12-01T06:14:33;-0.20;99.90
46283;DHT22;32017;43.700;11.820;2022-12-01T06:16:53;-0.30;99.90
46283;DHT22;32017;43.700;11.820;2022-12-01T06:19:13;-0.30;99.90
46283;DHT22;32017;43.700;11.820;2022-12-01T06:21:32;-0.30;99.90
46283;DHT22;32017;43.700;11.820;2022-12-01T06:23:52;-0.30;99.90
46283;DHT22;32017;43.700;11.820;2022-12-01T06:26:12;-0.40;99.90
46283;DHT22;32017;43.700;11.820;2022-12-01T06:28:31;-0.40;99.90
46283;DHT22;32017;43.700;11.820;2022-12-01T06:30:51;-0.40;99.90
46283;DHT22;32017;43.700;11.820;2022-12-01T06:33:11;-0.40;99.90
46283;DHT22;32017;43.700;11.820;2022-12-01T06:35:31;-0.50;99.90
46283;DHT22;32017;43.700;11.820;2022-12-01T06:37:52;-0.50;99.90
46283;DHT22;32017;43.700;11.820;2022-12-01T06:40:13;-0.50;99.90
46283;DHT22;32017;43.700;11.820;2022-12-01T06:42:32;-0.50;99.90
46283;DHT22;32017;43.700;11.820;2022-12-01T06:44:52;-0.50;99.90
46283;DHT22;32017;43.700;11.820;2022-12-01T06:47:12;-0.50;99.90
46283;DHT22;32017;43.700;11.820;2022-12-01T06:49:33;-0.50;99.90
46283;DHT22;32017;43.700;11.820;2022-12-01T06:51:53;-0.40;99.90
46283;DHT22;32017;43.700;11.820;2022-12-01T06:54:13;-0.40;99.90
46283;DHT22;32017;43.700;11.820;2022-12-01T06:56:33;-0.50;99.90
46283;DHT22;32017;43.700;11.820;2022-12-01T06:58:53;-0.50;99.90
46283;DHT22;32017;43.700;11.820;2022-12-01T07:01:14;-0.50;99.90
46283;DHT22;32017;43.700;11.820;2022-12-01T07:03:34;-0.60;99.90
46283;DHT22;32017;43.700;11.820;2022-12-01T07:05:59;-0.60;99.90
46283;DHT22;32017;43.700;11.820;2022-12-01T07:08:19;-0.70;99.90
46283;DHT22;32017;43.700;11.820;2022-12-01T07:10:38;-0.80;99.90
46283;DHT22;32017;43.700;11.820;2022-12-01T07:12:58;-0.70;99.90
46283;DHT22;32017;43.700;11.820;2022-12-01T07:15:18;-0.60;99.90
46283;DHT22;32017;43.700;11.820;2022-12-01T07:17:38;-0.60;99.90
46283;DHT22;32017;43.700;11.820;2022-12-01T07:19:57;-0.50;99.90
46283;DHT22;32017;43.700;11.820;2022-12-01T07:22:18;-0.40;99.90
46283;DHT22;32017;43.700;11.820;2022-12-01T07:24:37;-0.30;99.90
46283;DHT22;32017;43.700;11.820;2022-12-01T07:26:57;-0.30;99.90
46283;DHT22;32017;43.700;11.820;2022-12-01T07:29:17;-0.10;99.90
46283;DHT22;32017;43.700;11.820;2022-12-01T07:31:37;0.00;99.90
46283;DHT22;32017;43.700;11.820;2022-12-01T07:33:57;0.10;99.90
46283;DHT22;32017;43.700;11.820;2022-12-01T07:36:17;0.10;99.90
46283;DHT22;32017;43.700;11.820;2022-12-01T07:38:37;0.20;99.90
46283;DHT22;32017;43.700;11.820;2022-12-01T07:41:05;0.20;99.90
46283;DHT22;32017;43.700;11.820;2022-12-01T07:43:25;0.20;99.90
46283;DHT22;32017;43.700;11.820;2022-12-01T07:45:45;0.30;99.90
46283;DHT22;32017;43.700;11.820;2022-12-01T07:48:05;0.30;99.90
46283;DHT22;32017;43.700;11.820;2022-12-01T07:50:25;0.30;99.90
46283;DHT22;32017;43.700;11.820;2022-12-01T07:52:48;0.20;99.90
46283;DHT22;32017;43.700;11.820;2022-12-01T07:55:09;0.20;99.90
46283;DHT22;32017;43.700;11.820;2022-12-01T07:57:29;0.20;99.90
46283;DHT22;32017;43.700;11.820;2022-12-01T07:59:48;0.20;99.90
46283;DHT22;32017;43.700;11.820;2022-12-01T08:02:09;0.30;99.90
46283;DHT22;32017;43.700;11.820;2022-12-01T08:04:29;0.40;99.90
46283;DHT22;32017;43.700;11.820;2022-12-01T08:06:49;0.40;99.90
46283;DHT22;32017;43.700;11.820;2022-12-01T08:09:08;0.50;99.90
46283;DHT22;32017;43.700;11.820;2022-12-01T08:11:28;0.50;99.90
46283;DHT22;32017;43.700;11.820;2022-12-01T08:13:49;0.50;99.90
46283;DHT22;32017;43.700;11.820;2022-12-01T08:16:13;0.60;99.90
46283;DHT22;32017;43.700;11.820;2022-12-01T08:18:38;0.70;99.90
46283;DHT22;32017;43.700;11.820;2022-12-01T08:20:58;0.70;99.90
46283;DHT22;32017;43.700;11.820;2022-12-01T08:23:18;0.80;99.90
46283;DHT22;32017;43.700;11.820;2022-12-01T08:25:38;0.90;99.90
46283;DHT22;32017;43.700;11.820;2022-12-01T08:27:59;1.00;99.90
46283;DHT22;32017;43.700;11.820;2022-12-01T08:30:20;1.00;99.90
46283;DHT22;32017;43.700;11.820;2022-12-01T08:32:40;1.10;99.90
46283;DHT22;32017;43.700;11.820;2022-12-01T08:34:59;1.20;99.90
46283;DHT22;32017;43.700;11.820;2022-12-01T08:37:19;1.30;99.90
46283;DHT22;32017;43.700;11.820;2022-12-01T08:39:39;1.40;99.90
46283;DHT22;32017;43.700;11.820;2022-12-01T08:41:59;1.40;99.90
46283;DHT22;32017;43.700;11.820;2022-12-01T08:44:19;1.50;99.90
46283;DHT22;32017;43.700;11.820;2022-12-01T08:46:39;1.50;99.90
46283;DHT22;32017;43.700;11.820;2022-12-01T08:49:00;1.60;99.90
46283;DHT22;32017;43.700;11.820;2022-12-01T08:51:20;1.60;99.90
46283;DHT22;32017;43.700;11.820;2022-12-01T08:53:43;1.70;99.90
46283;DHT22;32017;43.700;11.820;2022-12-01T08:56:09;1.90;99.90
46283;DHT22;32017;43.700;11.820;2022-12-01T08:58:29;2.00;99.90
46283;DHT22;32017;43.700;11.820;2022-12-01T09:00:49;2.30;99.90
46283;DHT22;32017;43.700;11.820;2022-12-01T09:03:09;2.50;99.90
46283;DHT22;32017;43.700;11.820;2022-12-01T09:05:29;2.80;99.90
46283;DHT22;32017;43.700;11.820;2022-12-01T09:07:49;2.90;99.90
46283;DHT22;32017;43.700;11.820;2022-12-01T09:10:28;2.90;99.90
46283;DHT22;32017;43.700;11.820;2022-12-01T09:12:48;3.00;99.90
46283;DHT22;32017;43.700;11.820;2022-12-01T09:15:08;3.00;99.90
46283;DHT22;32017;43.700;11.820;2022-12-01T09:17:28;3.00;99.90
46283;DHT22;32017;43.700;11.820;2022-12-01T09:19:48;3.10;99.90
46283;DHT22;32017;43.700;11.820;2022-12-01T09:22:09;3.20;99.90
46283;DHT22;32017;43.700;11.820;2022-12-01T09:24:29;3.30;99.90
46283;DHT22;32017;43.700;11.820;2022-12-01T09:26:49;3.40;99.90
46283;DHT22;32017;43.700;11.820;2022-12-01T09:29:12;3.70;99.90
46283;DHT22;32017;43.700;11.820;2022-12-01T09:31:32;3.80;99.90
46283;DHT22;32017;43.700;11.820;2022-12-01T09:33:57;3.90;99.90
46283;DHT22;32017;43.700;11.820;2022-12-01T09:36:18;4.00;99.90
46283;DHT22;32017;43.700;11.820;2022-12-01T09:38:38;4.00;99.90
46283;DHT22;32017;43.700;11.820;2022-12-01T09:41:05;4.10;99.90
46283;DHT22;32017;43.700;11.820;2022-12-01T09:43:29;4.20;99.90
46283;DHT22;32017;43.700;11.820;2022-12-01T09:46:03;4.30;99.90
46283;DHT22;32017;43.700;11.820;2022-12-01T09:48:33;4.60;99.90
46283;DHT22;32017;43.700;11.820;2022-12-01T09:50:53;4.70;99.90
46283;DHT22;32017;43.700;11.820;2022-12-01T09:53:18;5.00;99.90
46283;DHT22;32017;43.700;11.820;2022-12-01T09:55:39;5.40;99.90
46283;DHT22;32017;43.700;11.820;2022-12-01T09:58:00;5.60;99.90
46283;DHT22;32017;43.700;11.820;2022-12-01T10:00:23;5.70;99.90
46283;DHT22;32017;43.700;11.820;2022-12-01T10:05:49;5.90;99.90
46283;DHT22;32017;43.700;11.820;2022-12-01T10:08:34;6.30;99.90
46283;DHT22;32017;43.700;11.820;2022-12-01T10:13:50;6.40;99.90
46283;DHT22;32017;43.700;11.820;2022-12-01T10:16:12;6.40;99.90
46283;DHT22;32017;43.700;11.820;2022-12-01T10:21:07;6.60;99.90
46283;DHT22;32017;43.700;11.820;2022-12-01T10:26:06;6.70;99.90
46283;DHT22;32017;43.700;11.820;2022-12-01T10:31:34;6.90;99.90
46283;DHT22;32017;43.700;11.820;2022-12-01T10:34:09;7.00;99.90
46283;DHT22;32017;43.700;11.820;2022-12-01T10:36:30;6.90;99.90
46283;DHT22;32017;43.700;11.820;2022-12-01T10:38:51;6.90;99.90
46283;DHT22;32017;43.700;11.820;2022-12-01T10:41:13;6.90;99.90
46283;DHT22;32017;43.700;11.820;2022-12-01T10:43:41;7.00;99.90
46283;DHT22;32017;43.700;11.820;2022-12-01T10:46:14;7.00;99.90
46283;DHT22;32017;43.700;11.820;2022-12-01T10:48:51;7.00;99.90
46283;DHT22;32017;43.700;11.820;2022-12-01T10:51:16;7.10;99.90
46283;DHT22;32017;43.700;11.820;2022-12-01T10:53:37;7.20;99.90
46283;DHT22;32017;43.700;11.820;2022-12-01T10:56:07;7.50;99.90
46283;DHT22;32017;43.700;11.820;2022-12-01T10:58:31;7.50;99.90
46283;DHT22;32017;43.700;11.820;2022-12-01T11:01:00;7.60;99.90
46283;DHT22;32017;43.700;11.820;2022-12-01T11:03:25;7.70;99.90
46283;DHT22;32017;43.700;11.820;2022-12-01T11:05:55;7.70;99.90
46283;DHT22;32017;43.700;11.820;2022-12-01T11:08:39;7.70;99.90
46283;DHT22;32017;43.700;11.820;2022-12-01T11:11:00;7.60;99.90
46283;DHT22;32017;43.700;11.820;2022-12-01T11:13:29;7.70;99.90
46283;DHT22;32017;43.700;11.820;2022-12-01T11:15:55;7.80;99.90
46283;DHT22;32017;43.700;11.820;2022-12-01T11:18:28;7.70;99.90
46283;DHT22;32017;43.700;11.820;2022-12-01T11:21:24;7.60;99.90
46283;DHT22;32017;43.700;11.820;2022-12-01T11:23:46;7.70;99.90
46283;DHT22;32017;43.700;11.820;2022-12-01T11:26:14;7.80;99.90
46283;DHT22;32017;43.700;11.820;2022-12-01T11:28:49;7.70;99.90
46283;DHT22;32017;43.700;11.820;2022-12-01T11:31:11;7.70;99.90
46283;DHT22;32017;43.700;11.820;2022-12-01T11:33:38;7.80;99.90
46283;DHT22;32017;43.700;11.820;2022-12-01T11:36:01;7.70;99.90
46283;DHT22;32017;43.700;11.820;2022-12-01T11:38:22;7.80;99.90
46283;DHT22;32017;43.700;11.820;2022-12-01T11:40:55;7.90;99.90
46283;DHT22;32017;43.700;11.820;2022-12-01T11:43:28;7.90;99.90
46283;DHT22;32017;43.700;11.820;2022-12-01T11:45:49;7.70;99.90
46283;DHT22;32017;43.700;11.820;2022-12-01T11:50:39;7.70;99.90
46283;DHT22;32017;43.700;11.820;2022-12-01T11:53:00;7.80;99.90
46283;DHT22;32017;43.700;11.820;2022-12-01T11:55:26;8.00;99.90
46283;DHT22;32017;43.700;11.820;2022-12-01T11:57:51;8.00;99.90
46283;DHT22;32017;43.700;11.820;2022-12-01T12:00:20;8.20;99.90
46283;DHT22;32017;43.700;11.820;2022-12-01T12:43:58;8.80;99.90
46283;DHT22;32017;43.700;11.820;2022-12-01T12:54:33;8.90;99.90
46283;DHT22;32017;43.700;11.820;2022-12-01T12:57:00;9.00;99.90
46283;DHT22;32017;43.700;11.820;2022-12-01T12:59:43;8.80;99.90
46283;DHT22;32017;43.700;11.820;2022-12-01T13:04:39;8.70;99.90
46283;DHT22;32017;43.700;11.820;2022-12-01T13:07:04;8.70;99.90
46283;DHT22;32017;43.700;11.820;2022-12-01T13:09:32;8.60;99.90
46283;DHT22;32017;43.700;11.820;2022-12-01T13:13:05;8.80;99.90
46283;DHT22;32017;43.700;11.820;2022-12-01T13:15:19;9.00;99.90
46283;DHT22;32017;43.700;11.820;2022-12-01T13:17:46;9.40;99.90
46283;DHT22;32017;43.700;11.820;2022-12-01T13:20:19;9.50;99.90
46283;DHT22;32017;43.700;11.820;2022-12-01T13:22:41;9.40;99.90
46283;DHT22;32017;43.700;11.820;2022-12-01T13:25:02;9.50;99.90
46283;DHT22;32017;43.700;11.820;2022-12-01T13:27:25;9.50;99.90
46283;DHT22;32017;43.700;11.820;2022-12-01T13:29:48;9.30;99.90
46283;DHT22;32017;43.700;11.820;2022-12-01T13:32:26;9.10;99.90
46283;DHT22;32017;43.700;11.820;2022-12-01T13:34:47;8.90;99.90
46283;DHT22;32017;43.700;11.820;2022-12-01T13:37:08;8.90;99.90
46283;DHT22;32017;43.700;11.820;2022-12-01T13:39:33;8.80;99.90
46283;DHT22;32017;43.700;11.820;2022-12-01T13:42:01;8.60;99.90
46283;DHT22;32017;43.700;11.820;2022-12-01T13:44:25;8.50;99.90
46283;DHT22;32017;43.700;11.820;2022-12-01T13:49:45;8.50;99.90
46283;DHT22;32017;43.700;11.820;2022-12-01T13:54:37;8.40;99.90
46283;DHT22;32017;43.700;11.820;2022-12-01T13:57:11;8.50;99.90
46283;DHT22;32017;43.700;11.820;2022-12-01T13:59:40;8.50;99.90
46283;DHT22;32017;43.700;11.820;2022-12-01T14:02:20;8.60;99.90
46283;DHT22;32017;43.700;11.820;2022-12-01T14:04:41;8.50;99.90
46283;DHT22;32017;43.700;11.820;2022-12-01T14:07:25;8.50;99.90
46283;DHT22;32017;43.700;11.820;2022-12-01T14:09:51;8.40;99.90
46283;DHT22;32017;43.700;11.820;2022-12-01T14:12:22;8.30;99.90
46283;DHT22;32017;43.700;11.820;2022-12-01T14:17:39;8.10;99.90
46283;DHT22;32017;43.700;11.820;2022-12-01T14:22:40;8.10;99.90
46283;DHT22;32017;43.700;11.820;2022-12-01T14:25:05;8.00;99.90
46283;DHT22;32017;43.700;11.820;2022-12-01T14:27:41;7.90;99.90
46283;DHT22;32017;43.700;11.820;2022-12-01T14:35:59;7.70;99.90
46283;DHT22;32017;43.700;11.820;2022-12-01T14:38:20;7.50;99.90
46283;DHT22;32017;43.700;11.820;2022-12-01T14:40:40;7.40;99.90
46283;DHT22;32017;43.700;11.820;2022-12-01T14:43:02;7.20;99.90
46283;DHT22;32017;43.700;11.820;2022-12-01T14:45:54;7.20;99.90
46283;DHT22;32017;43.700;11.820;2022-12-01T14:48:22;7.10;99.90
46283;DHT22;32017;43.700;11.820;2022-12-01T14:51:06;7.00;99.90
46283;DHT22;32017;43.700;11.820;2022-12-01T14:53:32;7.00;99.90
46283;DHT22;32017;43.700;11.820;2022-12-01T14:55:58;6.90;99.90
46283;DHT22;32017;43.700;11.820;2022-12-01T14:58:28;6.90;99.90
46283;DHT22;32017;43.700;11.820;2022-12-01T15:00:55;6.80;99.90
46283;DHT22;32017;43.700;11.820;2022-12-01T15:03:16;6.70;99.90
46283;DHT22;32017;43.700;11.820;2022-12-01T15:05:39;6.70;99.90
46283;DHT22;32017;43.700;11.820;2022-12-01T15:08:11;6.60;99.90
46283;DHT22;32017;43.700;11.820;2022-12-01T15:10:57;6.50;99.90
46283;DHT22;32017;43.700;11.820;2022-12-01T15:13:24;6.50;99.90
46283;DHT22;32017;43.700;11.820;2022-12-01T15:15:51;6.40;99.90
46283;DHT22;32017;43.700;11.820;2022-12-01T15:18:26;6.40;99.90
46283;DHT22;32017;43.700;11.820;2022-12-01T15:20:47;6.30;99.90
46283;DHT22;32017;43.700;11.820;2022-12-01T15:23:12;6.20;99.90
46283;DHT22;32017;43.700;11.820;2022-12-01T15:25:34;6.20;99.90
46283;DHT22;32017;43.700;11.820;2022-12-01T15:28:14;6.10;99.90
46283;DHT22;32017;43.700;11.820;2022-12-01T15:30:34;6.10;99.90
46283;DHT22;32017;43.700;11.820;2022-12-01T15:32:54;6.00;99.90
46283;DHT22;32017;43.700;11.820;2022-12-01T15:35:20;6.10;99.90
46283;DHT22;32017;43.700;11.820;2022-12-01T15:37:43;6.10;99.90
46283;DHT22;32017;43.700;11.820;2022-12-01T15:40:07;5.90;99.90
46283;DHT22;32017;43.700;11.820;2022-12-01T15:43:30;5.90;99.90
46283;DHT22;32017;43.700;11.820;2022-12-01T15:45:59;5.90;99.90
46283;DHT22;32017;43.700;11.820;2022-12-01T15:48:32;5.80;99.90
46283;DHT22;32017;43.700;11.820;2022-12-01T15:51:25;5.70;99.90
46283;DHT22;32017;43.700;11.820;2022-12-01T15:53:49;5.60;99.90
46283;DHT22;32017;43.700;11.820;2022-12-01T15:56:10;5.60;99.90
46283;DHT22;32017;43.700;11.820;2022-12-01T15:58:34;5.60;99.90
46283;DHT22;32017;43.700;11.820;2022-12-01T16:00:58;5.50;99.90
46283;DHT22;32017;43.700;11.820;2022-12-01T16:03:19;5.40;99.90
46283;DHT22;32017;43.700;11.820;2022-12-01T16:05:43;5.40;99.90
46283;DHT22;32017;43.700;11.820;2022-12-01T16:08:23;5.40;99.90
46283;DHT22;32017;43.700;11.820;2022-12-01T16:10:44;5.40;99.90
46283;DHT22;32017;43.700;11.820;2022-12-01T16:15:56;5.20;99.90
46283;DHT22;32017;43.700;11.820;2022-12-01T16:18:31;5.20;99.90
46283;DHT22;32017;43.700;11.820;2022-12-01T16:20:52;5.10;99.90
46283;DHT22;32017;43.700;11.820;2022-12-01T16:23:19;5.10;99.90
46283;DHT22;32017;43.700;11.820;2022-12-01T16:25:44;5.10;99.90
46283;DHT22;32017;43.700;11.820;2022-12-01T16:28:06;5.10;99.90
46283;DHT22;32017;43.700;11.820;2022-12-01T16:30:28;5.10;99.90
46283;DHT22;32017;43.700;11.820;2022-12-01T16:33:01;5.10;99.90
46283;DHT22;32017;43.700;11.820;2022-12-01T16:35:24;5.00;99.90
46283;DHT22;32017;43.700;11.820;2022-12-01T16:37:44;5.00;99.90
46283;DHT22;32017;43.700;11.820;2022-12-01T16:40:04;5.10;99.90
46283;DHT22;32017;43.700;11.820;2022-12-01T16:42:26;5.10;99.90
46283;DHT22;32017;43.700;11.820;2022-12-01T16:44:47;5.00;99.90
46283;DHT22;32017;43.700;11.820;2022-12-01T16:47:18;4.90;99.90
46283;DHT22;32017;43.700;11.820;2022-12-01T16:49:38;4.80;99.90
46283;DHT22;32017;43.700;11.820;2022-12-01T16:51:58;4.70;99.90
46283;DHT22;32017;43.700;11.820;2022-12-01T16:54:30;4.60;99.90
46283;DHT22;32017;43.700;11.820;2022-12-01T16:56:50;4.40;99.90
46283;DHT22;32017;43.700;11.820;2022-12-01T16:59:10;4.40;99.90
46283;DHT22;32017;43.700;11.820;2022-12-01T17:01:29;4.40;99.90
46283;DHT22;32017;43.700;11.820;2022-12-01T17:03:49;4.30;99.90
46283;DHT22;32017;43.700;11.820;2022-12-01T17:06:14;4.30;99.90
46283;DHT22;32017;43.700;11.820;2022-12-01T17:08:35;4.30;99.90
46283;DHT22;32017;43.700;11.820;2022-12-01T17:10:55;4.30;99.90